Wausau, WI (54401)

4:18 AM CST on December 04, 2016 (GMT -0600)
Thomas Jefferson Elementary, Across the Street | | Change Station
Active Advisory: Winter Weather Advisory

Elev 1276 ft 44.98 °N, 89.64 °W | Updated 33 seconds ago

Overcast
Overcast
27.5 °F
Feels Like 28 °F
N
3.0
Wind Variable Wind from ESE

Today
High -- | Low -- °F
--% Chance of Precip.
Yesterday
High -- | Low -- °F
Precip. -- in
Pressure 30.19 in
Visibility 10.0 miles
Clouds Overcast 2800 ft
Windchill 28 °F
Dew Point 22 °F
Humidity 81%
Rainfall 0.00 in
Snow Depth Not available.
7:20 AM 4:17 PM
Waxing Crescent, 21% visible
METAR KAUW 040954Z AUTO 16005KT 10SM OVC028 M02/M06 A3013 RMK AO2 SLP223 T10221061
Pressure 30.19 in
Visibility 10.0 miles
Clouds Overcast 2800 ft
Windchill 28 °F
Dew Point 22 °F
Humidity 81%
Rainfall 0.00 in
Snow Depth Not available.
7:20 AM 4:17 PM
Waxing Crescent, 21% visible
METAR KAUW 040954Z AUTO 16005KT 10SM OVC028 M02/M06 A3013 RMK AO2 SLP223 T10221061

10-Day Weather Forecast

Almanac

Astronomy

Dec. 04, 2016 Rise Set
Actual Time
Civil Twilight
Nautical Twilight
Astronomical Twilight
Moon
Length of Visible Light
Length of Day
Tomorrow will be .
, % of the Moon is Illuminated

Today's Extremes

State Highs State Lows

Community

WunderPhotos

Upload Photos

1,955,591 photos uploaded!

WunderBlog® & News

Nearby

Air Quality

  Air Quality AQ Index Pollutant
Not available.

Snow Depth

Station Depth Elevation

Earthquake Activity

City Distance Mag. Time & Date
Minimum magnitude displayed is 2.5.

Coastal Water Temperatures

Place Temperature

Stations

Nearby Weather Stations

Station Location Temp. Windchill Dew Point Humidity Wind Precip. Elev Updated Type
                   

Watches & Warnings

Winter Weather Advisory
Issued: 3:17 AM CST Dec. 4, 2016 – National Weather Service

... Winter Weather Advisory remains in effect until 6 PM CST this
evening...

* snow will arrive early this morning and continue through late
afternoon.

* Snow accumulations should be in the 2 to 4 inch range.

* The snow will cause roads to become snow covered and slippery,
making travel hazardous. Air travel delays are also possible.

Precautionary/preparedness actions...

A Winter Weather Advisory for snow means periods of snow will
cause primarily travel difficulties. Be prepared for snow covered
roads and limited visibilities... and use extra caution while
driving. The latest Wisconsin Road conditions can be obtained by
calling 511.